Time;durP1;ratioP1;P1;durP2;ratioP2;P2;SDS_P1;SDS_P2;PMS_P1;PMS_P2;Temp;Humidity;BMP_temperature;BMP_pressure;BME280_temperature;BME280_humidity;BME280_pressure;Samples;Min_cycle;Max_cycle;Signal;HPM_P1;HPM_P2
2023/10/03 00:00:09;;;;;;;0.30;0.30;;;;;;;;;;5122194;27;20038;-92
2023/10/03 00:02:35;;;;;;;0.20;0.20;;;;;;;;;;5122627;27;20042;-92
2023/10/03 00:05:01;;;;;;;0.20;0.20;;;;;;;;;;5121399;27;20077;-92
2023/10/03 00:07:27;;;;;;;0.10;0.10;;;;;;;;;;5121844;27;20042;-91
2023/10/03 00:09:53;;;;;;;0.10;0.10;;;;;;;;;;5138568;27;20043;-92
2023/10/03 00:12:19;;;;;;;0.30;0.30;;;;;;;;;;5122094;27;20050;-92
2023/10/03 00:14:46;;;;;;;0.10;0.10;;;;;;;;;;5121398;27;20480;-92
2023/10/03 00:17:14;;;;;;;0.10;0.10;;;;;;;;;;5121580;27;20074;-92
2023/10/03 00:19:41;;;;;;;0.28;0.28;;;;;;;;;;5138237;27;20035;-92
2023/10/03 00:22:07;;;;;;;0.10;0.10;;;;;;;;;;5121419;27;20085;-92
2023/10/03 00:24:33;;;;;;;0.20;0.20;;;;;;;;;;5121750;27;20046;-91
2023/10/03 00:26:59;;;;;;;0.80;0.32;;;;;;;;;;5121666;27;20392;-91
2023/10/03 00:29:29;;;;;;;0.20;0.20;;;;;;;;;;5121359;27;20043;-93
2023/10/03 00:31:59;;;;;;;0.10;0.10;;;;;;;;;;5122285;27;20479;-91
2023/10/03 00:34:25;;;;;;;0.15;0.15;;;;;;;;;;5121682;27;20042;-92
2023/10/03 00:36:54;;;;;;;0.10;0.10;;;;;;;;;;5139091;27;20099;-92
2023/10/03 00:39:22;;;;;;;0.30;0.30;;;;;;;;;;5138595;27;20113;-91
2023/10/03 00:41:48;;;;;;;0.10;0.10;;;;;;;;;;5138154;27;20066;-92
2023/10/03 00:44:14;;;;;;;0.80;0.55;;;;;;;;;;5121027;27;20050;-92
2023/10/03 00:46:40;;;;;;;0.52;0.35;;;;;;;;;;5121002;27;20038;-91
2023/10/03 00:49:10;;;;;;;0.40;0.30;;;;;;;;;;5121096;27;20046;-92
2023/10/03 00:51:36;;;;;;;0.10;0.10;;;;;;;;;;5138657;27;20042;-91
2023/10/03 00:54:03;;;;;;;0.13;0.13;;;;;;;;;;5137814;27;20035;-92
2023/10/03 00:56:30;;;;;;;0.25;0.25;;;;;;;;;;5137980;27;20143;-92
2023/10/03 00:58:57;;;;;;;0.10;0.10;;;;;;;;;;5138865;27;20467;-90
2023/10/03 01:01:27;;;;;;;0.57;0.57;;;;;;;;;;5128032;27;20039;-91
2023/10/03 01:03:55;;;;;;;0.20;0.20;;;;;;;;;;5129423;27;20066;-91
2023/10/03 01:06:21;;;;;;;0.10;0.10;;;;;;;;;;5150021;27;20047;-91
2023/10/03 01:08:48;;;;;;;0.10;0.10;;;;;;;;;;5132023;27;20112;-92
2023/10/03 01:11:15;;;;;;;0.10;0.10;;;;;;;;;;5139032;27;20046;-91
2023/10/03 01:13:42;;;;;;;0.10;0.10;;;;;;;;;;5120402;27;20090;-91
2023/10/03 01:16:08;;;;;;;0.32;0.32;;;;;;;;;;5120162;27;20465;-91
2023/10/03 01:18:37;;;;;;;0.10;0.10;;;;;;;;;;5138305;27;20043;-93
2023/10/03 01:21:05;;;;;;;0.10;0.10;;;;;;;;;;5138297;27;20049;-91
2023/10/03 01:23:36;;;;;;;0.25;0.25;;;;;;;;;;5154942;27;20038;-92
2023/10/03 01:26:03;;;;;;;0.10;0.10;;;;;;;;;;5137717;27;20096;-92
2023/10/03 01:28:30;;;;;;;0.10;0.10;;;;;;;;;;5120368;27;20043;-91
2023/10/03 01:30:56;;;;;;;0.10;0.10;;;;;;;;;;5120295;27;20038;-91
2023/10/03 01:33:28;;;;;;;0.20;0.20;;;;;;;;;;5137089;27;20443;-91
2023/10/03 01:35:55;;;;;;;0.10;0.10;;;;;;;;;;5137807;27;20095;-92
2023/10/03 01:38:21;;;;;;;0.10;0.10;;;;;;;;;;5120323;27;20043;-92
2023/10/03 01:40:54;;;;;;;0.10;0.10;;;;;;;;;;5137397;27;20037;-91
2023/10/03 01:43:20;;;;;;;0.10;0.10;;;;;;;;;;5119822;27;20039;-92
2023/10/03 01:45:47;;;;;;;0.10;0.10;;;;;;;;;;5137311;27;20043;-91
2023/10/03 01:48:13;;;;;;;0.43;0.43;;;;;;;;;;5120180;27;20042;-91
2023/10/03 01:50:39;;;;;;;0.20;0.20;;;;;;;;;;5153558;27;20049;-91
2023/10/03 01:53:07;;;;;;;0.20;0.20;;;;;;;;;;5119647;27;20042;-91
2023/10/03 01:55:33;;;;;;;0.30;0.30;;;;;;;;;;5119555;27;20134;-92
2023/10/03 01:57:59;;;;;;;0.90;0.40;;;;;;;;;;5136733;27;20070;-92
2023/10/03 02:00:26;;;;;;;0.20;0.20;;;;;;;;;;5119276;27;20035;-91
2023/10/03 02:02:53;;;;;;;0.10;0.10;;;;;;;;;;5119657;27;20365;-91
2023/10/03 02:05:23;;;;;;;0.10;0.10;;;;;;;;;;5119201;27;20384;-91
2023/10/03 02:07:51;;;;;;;0.10;0.10;;;;;;;;;;5153716;27;20046;-91
2023/10/03 02:10:17;;;;;;;0.20;0.20;;;;;;;;;;5119320;27;20420;-90
2023/10/03 02:12:48;;;;;;;0.50;0.50;;;;;;;;;;5136694;27;20091;-91
2023/10/03 02:15:22;;;;;;;0.28;0.22;;;;;;;;;;5136825;27;20488;-90
2023/10/03 02:17:49;;;;;;;0.20;0.20;;;;;;;;;;5135715;27;20042;-91
2023/10/03 02:20:16;;;;;;;0.38;0.20;;;;;;;;;;5120096;27;20417;-95
2023/10/03 02:22:42;;;;;;;0.10;0.10;;;;;;;;;;5153037;27;20046;-92
2023/10/03 02:25:11;;;;;;;0.10;0.10;;;;;;;;;;5136443;27;20034;-92
2023/10/03 02:27:37;;;;;;;0.17;0.17;;;;;;;;;;5120295;27;20115;-92
2023/10/03 02:30:08;;;;;;;0.10;0.10;;;;;;;;;;5118925;27;20039;-90
2023/10/03 02:32:35;;;;;;;0.47;0.35;;;;;;;;;;5119675;27;20084;-93
2023/10/03 02:35:01;;;;;;;0.20;0.20;;;;;;;;;;5136077;27;20107;-93
2023/10/03 02:37:27;;;;;;;0.40;0.40;;;;;;;;;;5119112;27;20050;-91
2023/10/03 02:39:53;;;;;;;0.38;0.38;;;;;;;;;;5153342;27;20127;-92
2023/10/03 02:42:19;;;;;;;0.88;0.45;;;;;;;;;;5136627;27;20471;-91
2023/10/03 02:44:45;;;;;;;0.20;0.20;;;;;;;;;;5135848;27;20038;-92
2023/10/03 02:47:13;;;;;;;0.45;0.45;;;;;;;;;;5119339;27;20042;-91
2023/10/03 02:49:39;;;;;;;0.40;0.40;;;;;;;;;;5118631;27;20095;-91
2023/10/03 02:52:05;;;;;;;0.57;0.57;;;;;;;;;;5119179;27;20761;-93
2023/10/03 02:54:32;;;;;;;0.20;0.20;;;;;;;;;;5136045;27;20043;-92
2023/10/03 02:56:58;;;;;;;1.55;0.40;;;;;;;;;;5119297;27;20083;-93
2023/10/03 02:59:24;;;;;;;0.10;0.10;;;;;;;;;;5119153;27;20453;-93
2023/10/03 03:01:52;;;;;;;0.20;0.20;;;;;;;;;;5119503;27;20081;-93
2023/10/03 03:04:21;;;;;;;0.20;0.20;;;;;;;;;;5119266;27;20053;-92
2023/10/03 03:06:50;;;;;;;0.57;0.57;;;;;;;;;;5118776;27;20548;-92
2023/10/03 03:09:23;;;;;;;0.20;0.20;;;;;;;;;;5138473;27;20089;-91
2023/10/03 03:11:50;;;;;;;0.25;0.25;;;;;;;;;;5124403;27;20049;-92
2023/10/03 03:14:16;;;;;;;0.10;0.10;;;;;;;;;;5123774;27;20038;-91
2023/10/03 03:16:47;;;;;;;0.20;0.20;;;;;;;;;;5154408;27;20043;-93
2023/10/03 03:19:14;;;;;;;0.43;0.43;;;;;;;;;;5136135;27;20038;-92
2023/10/03 03:21:41;;;;;;;0.10;0.10;;;;;;;;;;5118707;27;20039;-92
2023/10/03 03:24:09;;;;;;;0.43;0.20;;;;;;;;;;5135423;27;20078;-91
2023/10/03 03:26:36;;;;;;;1.02;0.63;;;;;;;;;;5118937;27;20042;-94
2023/10/03 03:29:06;;;;;;;0.28;0.28;;;;;;;;;;5136422;27;20468;-93
2023/10/03 03:31:33;;;;;;;0.20;0.20;;;;;;;;;;5121765;27;20483;-93
2023/10/03 03:34:01;;;;;;;0.63;0.30;;;;;;;;;;5122188;27;20104;-93
2023/10/03 03:36:34;;;;;;;0.70;0.30;;;;;;;;;;5122551;27;20045;-92
2023/10/03 03:39:05;;;;;;;0.88;0.88;;;;;;;;;;5122909;27;20035;-92
2023/10/03 03:41:32;;;;;;;2.83;0.35;;;;;;;;;;5139355;27;20056;-92
2023/10/03 03:43:59;;;;;;;0.13;0.13;;;;;;;;;;5122129;27;20503;-92
2023/10/03 03:46:26;;;;;;;0.10;0.10;;;;;;;;;;5122312;27;20038;-93
2023/10/03 03:48:52;;;;;;;0.10;0.10;;;;;;;;;;5121931;27;20042;-93
2023/10/03 03:51:19;;;;;;;0.20;0.20;;;;;;;;;;5121048;27;20088;-93
2023/10/03 03:53:45;;;;;;;0.20;0.20;;;;;;;;;;5121640;27;20078;-94
2023/10/03 03:56:12;;;;;;;0.20;0.20;;;;;;;;;;5121352;27;20039;-93
2023/10/03 03:58:44;;;;;;;0.15;0.15;;;;;;;;;;5138852;27;20038;-92
2023/10/03 04:01:19;;;;;;;0.68;0.68;;;;;;;;;;5139598;27;20483;-93
2023/10/03 04:03:51;;;;;;;0.20;0.20;;;;;;;;;;5122734;27;20130;-93
2023/10/03 04:06:21;;;;;;;1.48;0.75;;;;;;;;;;5122431;27;20392;-93
2023/10/03 04:08:48;;;;;;;0.30;0.30;;;;;;;;;;5122060;27;20479;-93
2023/10/03 04:11:14;;;;;;;0.52;0.40;;;;;;;;;;5121439;27;20384;-92
2023/10/03 04:13:49;;;;;;;0.10;0.10;;;;;;;;;;5121516;27;20038;-94
2023/10/03 04:16:20;;;;;;;0.35;0.35;;;;;;;;;;5122876;27;20042;-92
2023/10/03 04:18:51;;;;;;;0.30;0.30;;;;;;;;;;5139185;27;20039;-93
2023/10/03 04:21:19;;;;;;;0.20;0.20;;;;;;;;;;5121591;27;20038;-93
2023/10/03 04:23:45;;;;;;;0.95;0.95;;;;;;;;;;5137752;27;20126;-93
2023/10/03 04:26:12;;;;;;;0.28;0.28;;;;;;;;;;5121277;27;20042;-93
2023/10/03 04:28:43;;;;;;;0.43;0.20;;;;;;;;;;5138819;27;20091;-93
2023/10/03 04:31:10;;;;;;;0.63;0.63;;;;;;;;;;5138325;27;20054;-93
2023/10/03 04:33:36;;;;;;;0.50;0.50;;;;;;;;;;5138269;27;20053;-94
2023/10/03 04:36:04;;;;;;;0.30;0.30;;;;;;;;;;5138428;27;20116;-93
2023/10/03 04:38:31;;;;;;;0.10;0.10;;;;;;;;;;5121377;27;20035;-93
2023/10/03 04:40:57;;;;;;;0.88;0.88;;;;;;;;;;5137785;27;20077;-92
2023/10/03 04:43:23;;;;;;;0.10;0.10;;;;;;;;;;5120501;27;20130;-93
2023/10/03 04:45:51;;;;;;;1.15;0.85;;;;;;;;;;5120919;27;20425;-93
2023/10/03 04:48:18;;;;;;;0.52;0.52;;;;;;;;;;5121183;27;20038;-93
2023/10/03 04:50:44;;;;;;;1.17;0.90;;;;;;;;;;5136963;27;20055;-94
2023/10/03 04:53:14;;;;;;;0.28;0.28;;;;;;;;;;5121034;27;20065;-94
2023/10/03 04:55:45;;;;;;;0.20;0.20;;;;;;;;;;5138895;27;20041;-93
2023/10/03 04:58:12;;;;;;;0.10;0.10;;;;;;;;;;5120502;27;20043;-93
2023/10/03 05:00:38;;;;;;;1.95;0.40;;;;;;;;;;5138108;27;20074;-94
2023/10/03 05:03:09;;;;;;;0.20;0.20;;;;;;;;;;5120376;27;20043;-92
2023/10/03 05:05:35;;;;;;;0.25;0.25;;;;;;;;;;5120793;27;20540;-93
2023/10/03 05:08:03;;;;;;;0.35;0.22;;;;;;;;;;5120196;27;20057;-93
2023/10/03 05:10:30;;;;;;;0.63;0.63;;;;;;;;;;5120496;27;20074;-91
2023/10/03 05:12:57;;;;;;;0.52;0.28;;;;;;;;;;5119902;27;20050;-91
2023/10/03 05:15:26;;;;;;;0.60;0.38;;;;;;;;;;5136879;27;20510;-92
2023/10/03 05:17:52;;;;;;;0.20;0.20;;;;;;;;;;5123229;27;20035;-91
2023/10/03 05:20:18;;;;;;;0.20;0.20;;;;;;;;;;5121234;27;20083;-92
2023/10/03 05:22:50;;;;;;;0.10;0.10;;;;;;;;;;5121120;27;20042;-94
2023/10/03 05:25:19;;;;;;;0.38;0.38;;;;;;;;;;5119754;27;20087;-92
2023/10/03 05:27:48;;;;;;;0.20;0.20;;;;;;;;;;5120300;27;20045;-92
2023/10/03 05:30:14;;;;;;;0.20;0.20;;;;;;;;;;5120044;27;20053;-92
2023/10/03 05:32:41;;;;;;;0.20;0.20;;;;;;;;;;5136899;27;20506;-93
2023/10/03 05:35:08;;;;;;;0.15;0.15;;;;;;;;;;5119491;27;20134;-92
2023/10/03 05:37:34;;;;;;;0.47;0.47;;;;;;;;;;5119651;27;20043;-93
2023/10/03 05:40:12;;;;;;;0.10;0.10;;;;;;;;;;5119459;27;20045;-93
2023/10/03 05:42:41;;;;;;;0.20;0.20;;;;;;;;;;5120133;27;20117;-93
2023/10/03 05:45:12;;;;;;;0.10;0.10;;;;;;;;;;5136511;27;20042;-92
2023/10/03 05:47:38;;;;;;;0.30;0.30;;;;;;;;;;5136728;27;20054;-92
2023/10/03 05:50:04;;;;;;;0.73;0.73;;;;;;;;;;5119464;27;20241;-93
2023/10/03 05:52:31;;;;;;;0.40;0.40;;;;;;;;;;5135112;27;20491;-93
2023/10/03 05:55:00;;;;;;;0.32;0.32;;;;;;;;;;5118698;27;20131;-93
2023/10/03 05:57:26;;;;;;;0.20;0.20;;;;;;;;;;5119775;27;20056;-95
2023/10/03 05:59:52;;;;;;;0.20;0.20;;;;;;;;;;5119354;27;20546;-93
2023/10/03 06:02:21;;;;;;;0.55;0.47;;;;;;;;;;5136099;27;20035;-95
2023/10/03 06:04:47;;;;;;;0.20;0.20;;;;;;;;;;5122574;27;20074;-96
2023/10/03 06:07:13;;;;;;;0.30;0.30;;;;;;;;;;5128974;27;20058;-96
2023/10/03 06:09:42;;;;;;;0.43;0.43;;;;;;;;;;5124388;27;20090;-95
2023/10/03 06:12:09;;;;;;;0.65;0.47;;;;;;;;;;5120025;27;20038;-95
2023/10/03 06:14:36;;;;;;;0.30;0.30;;;;;;;;;;5121436;27;20076;-95
2023/10/03 06:17:09;;;;;;;0.30;0.30;;;;;;;;;;5120914;27;20060;-94
2023/10/03 06:19:37;;;;;;;0.40;0.40;;;;;;;;;;5123985;27;20035;-95
2023/10/03 06:22:05;;;;;;;0.20;0.20;;;;;;;;;;5121212;27;20458;-95
2023/10/03 06:24:31;;;;;;;0.32;0.20;;;;;;;;;;5105623;28;20088;-94
2023/10/03 06:26:57;;;;;;;0.30;0.30;;;;;;;;;;5079649;28;20044;-95
2023/10/03 06:29:23;;;;;;;0.10;0.10;;;;;;;;;;5096742;27;20047;-95
2023/10/03 06:31:52;;;;;;;1.10;1.10;;;;;;;;;;5119436;27;20062;-95
2023/10/03 06:34:18;;;;;;;0.30;0.30;;;;;;;;;;5108270;28;20098;-95
2023/10/03 06:36:44;;;;;;;0.10;0.10;;;;;;;;;;5095966;28;20392;-92
2023/10/03 06:39:12;;;;;;;0.20;0.20;;;;;;;;;;5100820;28;20065;-94
2023/10/03 06:41:41;;;;;;;1.08;0.90;;;;;;;;;;5107837;28;20062;-96
2023/10/03 06:44:09;;;;;;;0.20;0.20;;;;;;;;;;5115304;28;20388;-95
2023/10/03 06:46:37;;;;;;;0.32;0.32;;;;;;;;;;5098751;28;20050;-93
2023/10/03 06:49:11;;;;;;;0.28;0.20;;;;;;;;;;5100688;28;20035;-95
2023/10/03 06:51:57;;;;;;;0.35;0.35;;;;;;;;;;5135078;28;20047;-95
2023/10/03 06:54:31;;;;;;;0.10;0.10;;;;;;;;;;5117712;28;20043;-93
2023/10/03 06:56:57;;;;;;;0.52;0.20;;;;;;;;;;5097353;28;20045;-90
2023/10/03 06:59:23;;;;;;;0.25;0.25;;;;;;;;;;5114422;28;20043;-94
2023/10/03 07:01:51;;;;;;;0.20;0.20;;;;;;;;;;5096954;28;20055;-92
2023/10/03 07:04:20;;;;;;;0.20;0.20;;;;;;;;;;5100362;27;20134;-92
2023/10/03 07:06:50;;;;;;;0.10;0.10;;;;;;;;;;5101973;27;20503;-92
2023/10/03 07:09:17;;;;;;;0.10;0.10;;;;;;;;;;5102356;27;20472;-94
2023/10/03 07:11:47;;;;;;;0.20;0.20;;;;;;;;;;5119168;27;20062;-92
2023/10/03 07:14:13;;;;;;;0.10;0.10;;;;;;;;;;5118956;27;20039;-88
2023/10/03 07:16:41;;;;;;;0.50;0.50;;;;;;;;;;5102401;27;20399;-96
2023/10/03 07:19:34;;;;;;;3.67;0.30;;;;;;;;;;5106309;27;20130;-95
2023/10/03 07:22:10;;;;;;;0.10;0.10;;;;;;;;;;5112765;27;20046;-95
2023/10/03 07:24:38;;;;;;;0.20;0.20;;;;;;;;;;5132047;27;20039;-96
2023/10/03 07:27:15;;;;;;;0.25;0.25;;;;;;;;;;5122669;27;20450;-96
2023/10/03 07:29:46;;;;;;;0.28;0.22;;;;;;;;;;5120206;27;20034;-95
2023/10/03 07:32:13;;;;;;;0.20;0.20;;;;;;;;;;5103046;28;20051;-95
2023/10/03 07:34:45;;;;;;;0.30;0.30;;;;;;;;;;5090942;28;20048;-95
2023/10/03 07:42:23;;;;;;;0.20;0.20;;;;;;;;;;5804362;22;20078;-95
2023/10/03 07:44:52;;;;;;;0.10;0.10;;;;;;;;;;5042254;28;20047;-92
2023/10/03 07:47:20;;;;;;;0.20;0.20;;;;;;;;;;5025856;28;20044;-94
2023/10/03 07:49:48;;;;;;;0.10;0.10;;;;;;;;;;5040286;28;20501;-93
2023/10/03 07:52:17;;;;;;;0.20;0.20;;;;;;;;;;5040891;28;20382;-93
2023/10/03 07:54:44;;;;;;;0.13;0.13;;;;;;;;;;5040856;28;20036;-94
2023/10/03 07:57:10;;;;;;;0.10;0.10;;;;;;;;;;5040845;28;20033;-93
2023/10/03 07:59:36;;;;;;;0.10;0.10;;;;;;;;;;5040242;28;20374;-93
2023/10/03 08:02:10;;;;;;;0.25;0.25;;;;;;;;;;5039792;28;20059;-94
2023/10/03 08:04:37;;;;;;;0.10;0.10;;;;;;;;;;5041105;28;20048;-93
2023/10/03 08:07:07;;;;;;;0.20;0.20;;;;;;;;;;5040155;28;20046;-94
2023/10/03 08:09:33;;;;;;;0.20;0.20;;;;;;;;;;5040646;28;20124;-94
2023/10/03 08:11:59;;;;;;;0.28;0.28;;;;;;;;;;5039971;28;20032;-92
2023/10/03 08:14:25;;;;;;;0.20;0.20;;;;;;;;;;5040185;28;20093;-94
2023/10/03 08:16:56;;;;;;;0.38;0.38;;;;;;;;;;5039127;28;20051;-94
2023/10/03 08:19:22;;;;;;;0.20;0.20;;;;;;;;;;5040742;28;20481;-94
2023/10/03 08:21:48;;;;;;;0.30;0.30;;;;;;;;;;5039880;28;20039;-92
2023/10/03 08:24:18;;;;;;;0.20;0.20;;;;;;;;;;5038873;28;20119;-92
2023/10/03 08:26:46;;;;;;;1.35;0.73;;;;;;;;;;5039182;28;20044;-92
2023/10/03 08:29:21;;;;;;;0.13;0.13;;;;;;;;;;5023140;28;20485;-94
2023/10/03 08:31:49;;;;;;;0.13;0.13;;;;;;;;;;5039305;28;20047;-94
2023/10/03 08:34:16;;;;;;;2.72;1.27;;;;;;;;;;5019768;28;20090;-93
2023/10/03 08:36:42;;;;;;;1.65;0.50;;;;;;;;;;5008196;28;20044;-93
2023/10/03 08:39:14;;;;;;;0.20;0.20;;;;;;;;;;5056318;28;20074;-94
2023/10/03 08:41:45;;;;;;;0.43;0.43;;;;;;;;;;5039988;28;20033;-94
2023/10/03 08:44:20;;;;;;;0.20;0.20;;;;;;;;;;5028116;28;20111;-94
2023/10/03 08:46:50;;;;;;;0.10;0.10;;;;;;;;;;5024569;28;20430;-95
2023/10/03 08:49:17;;;;;;;0.20;0.20;;;;;;;;;;5023211;28;20561;-93
2023/10/03 08:51:44;;;;;;;0.17;0.17;;;;;;;;;;5023331;28;20040;-95
2023/10/03 08:54:12;;;;;;;0.30;0.30;;;;;;;;;;5040467;28;20623;-95
2023/10/03 08:56:40;;;;;;;0.10;0.10;;;;;;;;;;5039676;28;20045;-94
2023/10/03 08:59:10;;;;;;;0.10;0.10;;;;;;;;;;5040933;28;20395;-95
2023/10/03 09:01:43;;;;;;;0.10;0.10;;;;;;;;;;5023232;28;20514;-94
2023/10/03 09:04:15;;;;;;;0.10;0.10;;;;;;;;;;5038224;28;20045;-92
2023/10/03 09:06:45;;;;;;;0.10;0.10;;;;;;;;;;5056283;28;20108;-93
2023/10/03 09:09:17;;;;;;;0.75;0.45;;;;;;;;;;5039764;28;20203;-93
2023/10/03 09:11:44;;;;;;;0.10;0.10;;;;;;;;;;5023766;28;20032;-92
2023/10/03 09:14:19;;;;;;;0.20;0.13;;;;;;;;;;5042983;28;20059;-92
2023/10/03 09:16:50;;;;;;;0.30;0.30;;;;;;;;;;5041309;28;20131;-95
2023/10/03 09:19:25;;;;;;;0.10;0.10;;;;;;;;;;5041683;28;20045;-92
2023/10/03 09:21:54;;;;;;;0.10;0.10;;;;;;;;;;5049776;28;20040;-93
2023/10/03 09:24:21;;;;;;;0.10;0.10;;;;;;;;;;5041236;28;20076;-96
2023/10/03 09:26:50;;;;;;;0.10;0.10;;;;;;;;;;5026309;28;20059;-93
2023/10/03 09:29:32;;;;;;;0.10;0.10;;;;;;;;;;5044008;28;20127;-94
2023/10/03 09:31:59;;;;;;;0.10;0.10;;;;;;;;;;5046983;28;20135;-93
2023/10/03 09:34:32;;;;;;;0.10;0.10;;;;;;;;;;5043023;28;20102;-95
2023/10/03 09:37:02;;;;;;;0.10;0.10;;;;;;;;;;5040378;28;20076;-94
2023/10/03 09:39:30;;;;;;;0.10;0.10;;;;;;;;;;5040158;28;20036;-94
2023/10/03 09:41:57;;;;;;;0.22;0.22;;;;;;;;;;5039243;28;20056;-94
2023/10/03 09:47:06;;;;;;;0.10;0.10;;;;;;;;;;5012564;28;20561;-93
2023/10/03 09:49:38;;;;;;;0.10;0.10;;;;;;;;;;4983524;28;20038;-95
2023/10/03 09:52:16;;;;;;;0.20;0.20;;;;;;;;;;4982781;28;20045;-94
2023/10/03 09:54:43;;;;;;;0.10;0.10;;;;;;;;;;4997529;28;20339;-94
2023/10/03 09:57:17;;;;;;;0.10;0.10;;;;;;;;;;4979621;28;20057;-92
2023/10/03 09:59:45;;;;;;;0.10;0.10;;;;;;;;;;4997334;28;20041;-93
2023/10/03 10:02:12;;;;;;;0.10;0.10;;;;;;;;;;4980957;28;20042;-94
2023/10/03 10:04:38;;;;;;;0.17;0.17;;;;;;;;;;4979813;28;20208;-94
2023/10/03 10:07:16;;;;;;;0.10;0.10;;;;;;;;;;4980060;28;20415;-94
2023/10/03 10:09:54;;;;;;;0.10;0.10;;;;;;;;;;4981491;28;20074;-94
2023/10/03 10:12:21;;;;;;;0.43;0.43;;;;;;;;;;4980146;28;20402;-94
2023/10/03 10:15:00;;;;;;;0.10;0.10;;;;;;;;;;4980198;28;20045;-93
2023/10/03 10:17:45;;;;;;;0.10;0.10;;;;;;;;;;4996322;28;20038;-93
2023/10/03 10:20:17;;;;;;;0.10;0.10;;;;;;;;;;4977155;28;20546;-92
2023/10/03 10:23:02;;;;;;;0.10;0.10;;;;;;;;;;4976408;28;20100;-91
2023/10/03 10:25:30;;;;;;;0.10;0.10;;;;;;;;;;4976229;28;20038;-93
2023/10/03 10:28:06;;;;;;;0.10;0.10;;;;;;;;;;4976525;28;20499;-90
2023/10/03 10:30:32;;;;;;;0.10;0.10;;;;;;;;;;4976424;28;20496;-91
2023/10/03 10:33:23;;;;;;;0.10;0.10;;;;;;;;;;4991975;28;20042;-90
2023/10/03 10:35:54;;;;;;;0.10;0.10;;;;;;;;;;4992092;28;20157;-91
2023/10/03 10:38:21;;;;;;;0.10;0.10;;;;;;;;;;4976347;28;20399;-92
2023/10/03 10:41:05;;;;;;;0.10;0.10;;;;;;;;;;4980057;28;20038;-91
2023/10/03 10:43:35;;;;;;;0.10;0.10;;;;;;;;;;4997525;28;20093;-92
2023/10/03 10:46:19;;;;;;;0.10;0.10;;;;;;;;;;4980249;28;20105;-89
2023/10/03 10:48:46;;;;;;;0.10;0.10;;;;;;;;;;4979806;28;20046;-91
2023/10/03 10:51:12;;;;;;;0.10;0.10;;;;;;;;;;4979955;28;20042;-90
2023/10/03 10:54:04;;;;;;;0.10;0.10;;;;;;;;;;4979494;28;20080;-91
2023/10/03 10:56:32;;;;;;;0.10;0.10;;;;;;;;;;4981707;28;20042;-93
2023/10/03 10:59:06;;;;;;;0.10;0.10;;;;;;;;;;4981725;28;20042;-95
2023/10/03 11:04:23;;;;;;;0.10;0.10;;;;;;;;;;5035806;28;20050;-92
2023/10/03 11:06:52;;;;;;;0.10;0.10;;;;;;;;;;4986561;28;20132;-92
2023/10/03 11:09:20;;;;;;;0.10;0.10;;;;;;;;;;4986969;28;20045;-92
2023/10/03 11:11:50;;;;;;;0.10;0.10;;;;;;;;;;5003993;28;20057;-95
2023/10/03 11:14:29;;;;;;;0.10;0.10;;;;;;;;;;5003407;28;20084;-94
2023/10/03 11:16:56;;;;;;;0.10;0.10;;;;;;;;;;5001865;28;20046;-89
2023/10/03 11:19:22;;;;;;;0.10;0.10;;;;;;;;;;4986307;28;20374;-92
2023/10/03 11:21:48;;;;;;;0.10;0.10;;;;;;;;;;5001336;28;20037;-92
2023/10/03 11:24:21;;;;;;;0.10;0.10;;;;;;;;;;4985295;28;20065;-94
2023/10/03 11:26:47;;;;;;;;;;;;;;;;;;4988861;28;20041;-95
2023/10/03 11:29:15;;;;;;;0.10;0.10;;;;;;;;;;5019715;28;20377;-95
2023/10/03 11:31:45;;;;;;;0.20;0.20;;;;;;;;;;5003848;28;20096;-94
2023/10/03 11:34:11;;;;;;;0.20;0.20;;;;;;;;;;4989766;28;20047;-95
2023/10/03 11:36:43;;;;;;;0.10;0.10;;;;;;;;;;5004410;28;20037;-91
2023/10/03 11:39:13;;;;;;;;;;;;;;;;;;5018266;28;20104;-92
2023/10/03 11:41:39;;;;;;;0.80;0.25;;;;;;;;;;5021316;28;19952;-91
2023/10/03 11:44:19;;;;;;;0.10;0.10;;;;;;;;;;5002007;28;20041;-93
2023/10/03 11:46:44;;;;;;;0.10;0.10;;;;;;;;;;4986581;28;20132;-94
2023/10/03 11:49:17;;;;;;;0.10;0.10;;;;;;;;;;5002673;28;20083;-96
2023/10/03 11:51:43;;;;;;;;;;;;;;;;;;4985766;28;20099;-94
2023/10/03 11:54:10;;;;;;;0.20;0.20;;;;;;;;;;5002058;28;20365;-93
2023/10/03 11:56:43;;;;;;;0.10;0.10;;;;;;;;;;4987287;28;20041;-94
2023/10/03 11:59:09;;;;;;;0.10;0.10;;;;;;;;;;5004391;28;20033;-94
2023/10/03 12:01:35;;;;;;;0.10;0.10;;;;;;;;;;4986527;28;20042;-93
2023/10/03 12:04:05;;;;;;;0.10;0.10;;;;;;;;;;4981948;28;20129;-94
2023/10/03 12:06:31;;;;;;;0.10;0.10;;;;;;;;;;4978529;28;20057;-95
2023/10/03 12:09:00;;;;;;;0.10;0.10;;;;;;;;;;4978816;28;20056;-94
2023/10/03 12:11:26;;;;;;;0.10;0.10;;;;;;;;;;5016456;28;20128;-93
2023/10/03 12:13:52;;;;;;;0.15;0.15;;;;;;;;;;4999589;28;20080;-91
2023/10/03 12:16:20;;;;;;;0.10;0.10;;;;;;;;;;4987454;28;20092;-94
2023/10/03 12:18:46;;;;;;;0.10;0.10;;;;;;;;;;4986779;28;20442;-91
2023/10/03 12:21:13;;;;;;;0.10;0.10;;;;;;;;;;4993846;28;20092;-93
2023/10/03 12:24:02;;;;;;;0.10;0.10;;;;;;;;;;5020002;28;20037;-94
2023/10/03 12:26:31;;;;;;;0.10;0.10;;;;;;;;;;5026924;28;20070;-94
2023/10/03 12:28:58;;;;;;;0.10;0.10;;;;;;;;;;5035928;28;20488;-93
2023/10/03 12:31:27;;;;;;;0.10;0.10;;;;;;;;;;5020494;28;20087;-91
2023/10/03 12:33:55;;;;;;;0.10;0.10;;;;;;;;;;5004598;28;20089;-93
2023/10/03 12:36:21;;;;;;;0.10;0.10;;;;;;;;;;5004646;28;20044;-94
2023/10/03 12:38:48;;;;;;;0.10;0.10;;;;;;;;;;5004723;28;20040;-92
2023/10/03 12:41:14;;;;;;;0.10;0.10;;;;;;;;;;5020826;28;20045;-92
2023/10/03 12:43:46;;;;;;;0.10;0.10;;;;;;;;;;5004014;28;20041;-93
2023/10/03 12:46:13;;;;;;;0.20;0.20;;;;;;;;;;5005144;28;20037;-92
2023/10/03 12:48:40;;;;;;;0.10;0.10;;;;;;;;;;5037212;28;20060;-94
2023/10/03 12:51:08;;;;;;;0.40;0.30;;;;;;;;;;5003805;28;20398;-93
2023/10/03 12:53:37;;;;;;;0.10;0.10;;;;;;;;;;5004461;28;20546;-93
2023/10/03 12:56:08;;;;;;;0.10;0.10;;;;;;;;;;5036939;28;20077;-93
2023/10/03 12:58:34;;;;;;;0.10;0.10;;;;;;;;;;5020929;28;20131;-94
2023/10/03 13:01:01;;;;;;;0.10;0.10;;;;;;;;;;5005391;28;20032;-96
2023/10/03 13:06:30;;;;;;;0.10;0.10;;;;;;;;;;5157014;22;20050;-92
2023/10/03 13:08:59;;;;;;;0.10;0.10;;;;;;;;;;4981141;28;20099;-92
2023/10/03 13:11:25;;;;;;;0.57;0.28;;;;;;;;;;4965317;28;20120;-94
2023/10/03 13:13:51;;;;;;;0.10;0.10;;;;;;;;;;4981063;28;20045;-93
2023/10/03 13:16:17;;;;;;;0.10;0.10;;;;;;;;;;4964811;28;20042;-92
2023/10/03 13:18:44;;;;;;;0.10;0.10;;;;;;;;;;4964774;28;20129;-93
2023/10/03 13:21:10;;;;;;;0.10;0.10;;;;;;;;;;4996706;28;20042;-92
2023/10/03 13:23:36;;;;;;;0.63;0.17;;;;;;;;;;4996492;28;20057;-92
2023/10/03 13:26:02;;;;;;;0.10;0.10;;;;;;;;;;4980364;28;20054;-93
2023/10/03 13:28:28;;;;;;;0.10;0.10;;;;;;;;;;4980409;28;20403;-92
2023/10/03 13:30:56;;;;;;;0.10;0.10;;;;;;;;;;4995836;28;20042;-92
2023/10/03 13:33:22;;;;;;;0.10;0.10;;;;;;;;;;4964144;28;20042;-91
2023/10/03 13:35:48;;;;;;;0.20;0.20;;;;;;;;;;4982980;28;20041;-91
2023/10/03 13:38:14;;;;;;;0.15;0.15;;;;;;;;;;4965345;28;20034;-93
2023/10/03 13:40:43;;;;;;;0.10;0.10;;;;;;;;;;4980151;28;20048;-91
2023/10/03 13:43:09;;;;;;;0.10;0.10;;;;;;;;;;4980054;28;20557;-89
2023/10/03 13:45:35;;;;;;;0.10;0.10;;;;;;;;;;4980162;28;20041;-90
2023/10/03 13:48:02;;;;;;;0.30;0.30;;;;;;;;;;4964379;28;20351;-90
2023/10/03 13:50:29;;;;;;;0.10;0.10;;;;;;;;;;4980032;28;20050;-90
2023/10/03 13:52:55;;;;;;;0.35;0.28;;;;;;;;;;4963557;28;20042;-90
2023/10/03 13:55:25;;;;;;;0.10;0.10;;;;;;;;;;4978450;28;20048;-91
2023/10/03 13:57:52;;;;;;;1.65;0.30;;;;;;;;;;4979116;28;20038;-90
2023/10/03 14:00:18;;;;;;;0.10;0.10;;;;;;;;;;4955478;28;20104;-91
2023/10/03 14:02:45;;;;;;;0.20;0.20;;;;;;;;;;4975742;28;20081;-90
2023/10/03 14:05:11;;;;;;;0.10;0.10;;;;;;;;;;4975398;28;20124;-90
2023/10/03 14:07:37;;;;;;;0.13;0.13;;;;;;;;;;4992510;28;20194;-91
2023/10/03 14:10:06;;;;;;;0.10;0.10;;;;;;;;;;4960018;28;20046;-90
2023/10/03 14:12:33;;;;;;;0.10;0.10;;;;;;;;;;4959880;28;20038;-89
2023/10/03 14:14:59;;;;;;;0.10;0.10;;;;;;;;;;4958733;28;20460;-90
2023/10/03 14:17:25;;;;;;;0.10;0.10;;;;;;;;;;4975519;28;20039;-89
2023/10/03 14:19:51;;;;;;;0.10;0.10;;;;;;;;;;4959794;28;20042;-90
2023/10/03 14:22:20;;;;;;;0.10;0.10;;;;;;;;;;4975878;28;20043;-90
2023/10/03 14:24:46;;;;;;;0.10;0.10;;;;;;;;;;4991744;28;20512;-91
2023/10/03 14:27:13;;;;;;;0.20;0.20;;;;;;;;;;4959594;28;20107;-91
2023/10/03 14:29:42;;;;;;;0.10;0.10;;;;;;;;;;4959757;28;20503;-90
2023/10/03 14:32:10;;;;;;;0.43;0.28;;;;;;;;;;4959496;28;20060;-91
2023/10/03 14:34:37;;;;;;;0.20;0.20;;;;;;;;;;4959486;28;20044;-91
2023/10/03 14:37:04;;;;;;;0.22;0.22;;;;;;;;;;4975660;28;20050;-90
2023/10/03 14:39:32;;;;;;;0.10;0.10;;;;;;;;;;4975547;28;20078;-91
2023/10/03 14:41:58;;;;;;;0.10;0.10;;;;;;;;;;4975549;28;20489;-90
2023/10/03 14:44:24;;;;;;;0.10;0.10;;;;;;;;;;4975019;28;20038;-90
2023/10/03 14:46:50;;;;;;;0.10;0.10;;;;;;;;;;4959376;28;20095;-90
2023/10/03 14:49:16;;;;;;;0.13;0.13;;;;;;;;;;4975245;28;20104;-90
2023/10/03 14:51:42;;;;;;;0.10;0.10;;;;;;;;;;4959009;28;20046;-91
2023/10/03 14:54:11;;;;;;;0.10;0.10;;;;;;;;;;4975527;28;20050;-90
2023/10/03 14:56:37;;;;;;;0.10;0.10;;;;;;;;;;4975186;28;20543;-90
2023/10/03 14:59:04;;;;;;;0.10;0.10;;;;;;;;;;4975413;28;20047;-90
2023/10/03 15:01:30;;;;;;;0.10;0.10;;;;;;;;;;4975234;28;20046;-90
2023/10/03 15:03:56;;;;;;;0.20;0.20;;;;;;;;;;4975794;28;20049;-91